sensor_id;sensor_type;location;lat;lon;timestamp;P1;durP1;ratioP1;P2;durP2;ratioP2
48647;SDS011;34437;-33.956;151.076;2023-02-13T00:02:19;8.40;;;2.00;;
48647;SDS011;34437;-33.956;151.076;2023-02-13T00:04:41;7.68;;;1.90;;
48647;SDS011;34437;-33.956;151.076;2023-02-13T00:07:03;6.00;;;1.52;;
48647;SDS011;34437;-33.956;151.076;2023-02-13T00:09:26;4.63;;;1.85;;
48647;SDS011;34437;-33.956;151.076;2023-02-13T00:11:48;5.07;;;1.70;;
48647;SDS011;34437;-33.956;151.076;2023-02-13T00:14:11;8.40;;;2.42;;
48647;SDS011;34437;-33.956;151.076;2023-02-13T00:16:33;8.40;;;2.13;;
48647;SDS011;34437;-33.956;151.076;2023-02-13T00:18:56;5.90;;;1.83;;
48647;SDS011;34437;-33.956;151.076;2023-02-13T00:21:18;5.00;;;1.80;;
48647;SDS011;34437;-33.956;151.076;2023-02-13T00:23:41;6.30;;;1.80;;
48647;SDS011;34437;-33.956;151.076;2023-02-13T00:26:07;6.72;;;2.05;;
48647;SDS011;34437;-33.956;151.076;2023-02-13T00:28:32;4.57;;;1.83;;
48647;SDS011;34437;-33.956;151.076;2023-02-13T00:31:00;6.78;;;2.25;;
48647;SDS011;34437;-33.956;151.076;2023-02-13T00:33:27;6.18;;;2.10;;
48647;SDS011;34437;-33.956;151.076;2023-02-13T00:35:50;7.50;;;2.10;;
48647;SDS011;34437;-33.956;151.076;2023-02-13T00:38:12;4.60;;;1.85;;
48647;SDS011;34437;-33.956;151.076;2023-02-13T00:40:35;7.35;;;1.88;;
48647;SDS011;34437;-33.956;151.076;2023-02-13T00:42:57;11.27;;;2.03;;
48647;SDS011;34437;-33.956;151.076;2023-02-13T00:45:19;7.65;;;1.90;;
48647;SDS011;34437;-33.956;151.076;2023-02-13T00:47:42;6.30;;;1.98;;
48647;SDS011;34437;-33.956;151.076;2023-02-13T00:50:04;8.38;;;2.30;;
48647;SDS011;34437;-33.956;151.076;2023-02-13T00:52:27;4.32;;;1.80;;
48647;SDS011;34437;-33.956;151.076;2023-02-13T00:54:49;6.95;;;2.05;;
48647;SDS011;34437;-33.956;151.076;2023-02-13T00:57:12;5.00;;;1.73;;
48647;SDS011;34437;-33.956;151.076;2023-02-13T00:59:34;6.00;;;2.15;;
48647;SDS011;34437;-33.956;151.076;2023-02-13T01:01:57;4.57;;;2.03;;
48647;SDS011;34437;-33.956;151.076;2023-02-13T01:04:19;5.93;;;2.13;;
48647;SDS011;34437;-33.956;151.076;2023-02-13T01:06:41;5.60;;;1.92;;
48647;SDS011;34437;-33.956;151.076;2023-02-13T01:09:04;5.22;;;2.03;;
48647;SDS011;34437;-33.956;151.076;2023-02-13T01:11:26;6.95;;;2.33;;
48647;SDS011;34437;-33.956;151.076;2023-02-13T01:13:49;6.78;;;2.50;;
48647;SDS011;34437;-33.956;151.076;2023-02-13T01:16:11;8.23;;;2.53;;
48647;SDS011;34437;-33.956;151.076;2023-02-13T01:18:35;9.02;;;2.67;;
48647;SDS011;34437;-33.956;151.076;2023-02-13T01:21:03;5.45;;;2.60;;
48647;SDS011;34437;-33.956;151.076;2023-02-13T01:23:31;6.80;;;2.28;;
48647;SDS011;34437;-33.956;151.076;2023-02-13T01:25:55;5.07;;;2.20;;
48647;SDS011;34437;-33.956;151.076;2023-02-13T01:28:17;5.35;;;2.40;;
48647;SDS011;34437;-33.956;151.076;2023-02-13T01:30:39;4.40;;;2.05;;
48647;SDS011;34437;-33.956;151.076;2023-02-13T01:33:02;4.60;;;2.00;;
48647;SDS011;34437;-33.956;151.076;2023-02-13T01:35:24;3.60;;;1.73;;
48647;SDS011;34437;-33.956;151.076;2023-02-13T01:37:47;4.80;;;1.95;;
48647;SDS011;34437;-33.956;151.076;2023-02-13T01:40:10;4.43;;;1.98;;
48647;SDS011;34437;-33.956;151.076;2023-02-13T01:42:34;5.18;;;1.83;;
48647;SDS011;34437;-33.956;151.076;2023-02-13T01:44:57;3.35;;;1.67;;
48647;SDS011;34437;-33.956;151.076;2023-02-13T01:47:41;4.15;;;1.90;;
48647;SDS011;34437;-33.956;151.076;2023-02-13T01:52:42;6.63;;;1.90;;
48647;SDS011;34437;-33.956;151.076;2023-02-13T01:55:10;3.92;;;1.77;;
48647;SDS011;34437;-33.956;151.076;2023-02-13T01:57:34;4.45;;;1.90;;
48647;SDS011;34437;-33.956;151.076;2023-02-13T02:00:01;3.90;;;1.88;;
48647;SDS011;34437;-33.956;151.076;2023-02-13T02:02:30;5.15;;;2.20;;
48647;SDS011;34437;-33.956;151.076;2023-02-13T02:04:55;4.00;;;1.90;;
48647;SDS011;34437;-33.956;151.076;2023-02-13T02:07:22;3.90;;;1.83;;
48647;SDS011;34437;-33.956;151.076;2023-02-13T02:09:47;5.07;;;1.95;;
48647;SDS011;34437;-33.956;151.076;2023-02-13T02:14:56;6.07;;;1.93;;
48647;SDS011;34437;-33.956;151.076;2023-02-13T02:17:21;3.58;;;2.05;;
48647;SDS011;34437;-33.956;151.076;2023-02-13T02:24:53;4.28;;;1.83;;
48647;SDS011;34437;-33.956;151.076;2023-02-13T02:44:30;4.32;;;2.28;;
48647;SDS011;34437;-33.956;151.076;2023-02-13T02:49:54;4.28;;;1.90;;
48647;SDS011;34437;-33.956;151.076;2023-02-13T02:52:40;3.60;;;1.88;;
48647;SDS011;34437;-33.956;151.076;2023-02-13T02:55:13;3.53;;;1.80;;
48647;SDS011;34437;-33.956;151.076;2023-02-13T03:01:26;4.47;;;1.88;;
48647;SDS011;34437;-33.956;151.076;2023-02-13T03:04:13;4.35;;;1.95;;
48647;SDS011;34437;-33.956;151.076;2023-02-13T03:07:03;4.68;;;1.98;;
48647;SDS011;34437;-33.956;151.076;2023-02-13T03:09:30;5.07;;;1.90;;
48647;SDS011;34437;-33.956;151.076;2023-02-13T03:12:16;5.22;;;2.33;;
48647;SDS011;34437;-33.956;151.076;2023-02-13T03:15:00;4.13;;;1.77;;
48647;SDS011;34437;-33.956;151.076;2023-02-13T03:17:23;4.80;;;1.67;;
48647;SDS011;34437;-33.956;151.076;2023-02-13T03:23:19;4.90;;;2.10;;
48647;SDS011;34437;-33.956;151.076;2023-02-13T03:31:48;3.08;;;1.90;;
48647;SDS011;34437;-33.956;151.076;2023-02-13T03:34:22;4.55;;;2.05;;
48647;SDS011;34437;-33.956;151.076;2023-02-13T03:37:07;4.88;;;1.80;;
48647;SDS011;34437;-33.956;151.076;2023-02-13T03:40:02;4.25;;;1.70;;
48647;SDS011;34437;-33.956;151.076;2023-02-13T03:42:37;5.15;;;1.95;;
48647;SDS011;34437;-33.956;151.076;2023-02-13T03:45:20;4.45;;;2.13;;
48647;SDS011;34437;-33.956;151.076;2023-02-13T03:48:09;4.38;;;1.75;;
48647;SDS011;34437;-33.956;151.076;2023-02-13T03:50:52;4.32;;;1.92;;
48647;SDS011;34437;-33.956;151.076;2023-02-13T03:53:16;5.40;;;2.27;;
48647;SDS011;34437;-33.956;151.076;2023-02-13T03:55:40;21.73;;;4.20;;
48647;SDS011;34437;-33.956;151.076;2023-02-13T04:01:08;8.57;;;2.45;;
48647;SDS011;34437;-33.956;151.076;2023-02-13T04:06:03;5.18;;;2.05;;
48647;SDS011;34437;-33.956;151.076;2023-02-13T04:08:32;4.40;;;1.70;;
48647;SDS011;34437;-33.956;151.076;2023-02-13T04:13:41;2.95;;;1.63;;
48647;SDS011;34437;-33.956;151.076;2023-02-13T04:16:12;4.25;;;1.65;;
48647;SDS011;34437;-33.956;151.076;2023-02-13T04:18:41;4.93;;;1.77;;
48647;SDS011;34437;-33.956;151.076;2023-02-13T04:21:05;3.85;;;1.80;;
48647;SDS011;34437;-33.956;151.076;2023-02-13T04:23:28;3.78;;;1.75;;
48647;SDS011;34437;-33.956;151.076;2023-02-13T04:25:51;3.53;;;1.58;;
48647;SDS011;34437;-33.956;151.076;2023-02-13T04:28:15;5.03;;;1.70;;
48647;SDS011;34437;-33.956;151.076;2023-02-13T04:30:41;4.13;;;1.83;;
48647;SDS011;34437;-33.956;151.076;2023-02-13T04:33:06;5.30;;;1.75;;
48647;SDS011;34437;-33.956;151.076;2023-02-13T04:35:29;3.17;;;1.45;;
48647;SDS011;34437;-33.956;151.076;2023-02-13T04:37:51;4.15;;;1.73;;
48647;SDS011;34437;-33.956;151.076;2023-02-13T04:40:14;4.63;;;1.88;;
48647;SDS011;34437;-33.956;151.076;2023-02-13T04:42:36;3.20;;;1.60;;
48647;SDS011;34437;-33.956;151.076;2023-02-13T04:44:58;3.75;;;1.70;;
48647;SDS011;34437;-33.956;151.076;2023-02-13T04:47:21;4.30;;;1.80;;
48647;SDS011;34437;-33.956;151.076;2023-02-13T04:49:43;3.13;;;1.60;;
48647;SDS011;34437;-33.956;151.076;2023-02-13T04:52:05;3.97;;;1.85;;
48647;SDS011;34437;-33.956;151.076;2023-02-13T04:54:28;6.63;;;1.88;;
48647;SDS011;34437;-33.956;151.076;2023-02-13T04:56:50;3.78;;;1.67;;
48647;SDS011;34437;-33.956;151.076;2023-02-13T04:59:22;3.42;;;1.80;;
48647;SDS011;34437;-33.956;151.076;2023-02-13T05:01:44;4.47;;;2.05;;
48647;SDS011;34437;-33.956;151.076;2023-02-13T05:04:07;4.38;;;1.95;;
48647;SDS011;34437;-33.956;151.076;2023-02-13T05:06:31;3.75;;;1.73;;
48647;SDS011;34437;-33.956;151.076;2023-02-13T05:08:53;4.07;;;1.60;;
48647;SDS011;34437;-33.956;151.076;2023-02-13T05:11:16;4.93;;;1.65;;
48647;SDS011;34437;-33.956;151.076;2023-02-13T05:13:38;4.43;;;2.28;;
48647;SDS011;34437;-33.956;151.076;2023-02-13T05:16:00;5.20;;;1.73;;
48647;SDS011;34437;-33.956;151.076;2023-02-13T05:18:23;4.90;;;2.17;;
48647;SDS011;34437;-33.956;151.076;2023-02-13T05:20:46;4.28;;;1.77;;
48647;SDS011;34437;-33.956;151.076;2023-02-13T05:23:26;3.83;;;1.52;;
48647;SDS011;34437;-33.956;151.076;2023-02-13T05:25:49;3.55;;;1.55;;
48647;SDS011;34437;-33.956;151.076;2023-02-13T05:28:11;3.25;;;1.73;;
48647;SDS011;34437;-33.956;151.076;2023-02-13T05:30:52;4.07;;;1.98;;
48647;SDS011;34437;-33.956;151.076;2023-02-13T05:33:14;3.38;;;1.60;;
48647;SDS011;34437;-33.956;151.076;2023-02-13T05:35:36;4.13;;;1.63;;
48647;SDS011;34437;-33.956;151.076;2023-02-13T05:37:59;2.47;;;1.33;;
48647;SDS011;34437;-33.956;151.076;2023-02-13T05:40:21;4.72;;;1.98;;
48647;SDS011;34437;-33.956;151.076;2023-02-13T05:42:44;4.07;;;1.60;;
48647;SDS011;34437;-33.956;151.076;2023-02-13T05:45:06;3.72;;;1.80;;
48647;SDS011;34437;-33.956;151.076;2023-02-13T05:47:30;6.72;;;1.80;;
48647;SDS011;34437;-33.956;151.076;2023-02-13T05:49:52;4.25;;;1.75;;
48647;SDS011;34437;-33.956;151.076;2023-02-13T05:52:14;5.03;;;1.88;;
48647;SDS011;34437;-33.956;151.076;2023-02-13T05:54:39;3.88;;;1.65;;
48647;SDS011;34437;-33.956;151.076;2023-02-13T05:57:02;4.10;;;1.92;;
48647;SDS011;34437;-33.956;151.076;2023-02-13T05:59:24;4.28;;;1.65;;
48647;SDS011;34437;-33.956;151.076;2023-02-13T06:01:47;5.95;;;1.50;;
48647;SDS011;34437;-33.956;151.076;2023-02-13T06:04:09;4.03;;;1.55;;
48647;SDS011;34437;-33.956;151.076;2023-02-13T06:06:31;3.50;;;1.45;;
48647;SDS011;34437;-33.956;151.076;2023-02-13T06:08:54;3.78;;;1.50;;
48647;SDS011;34437;-33.956;151.076;2023-02-13T06:11:16;3.03;;;0.80;;
48647;SDS011;34437;-33.956;151.076;2023-02-13T06:13:39;3.40;;;1.15;;
48647;SDS011;34437;-33.956;151.076;2023-02-13T06:16:01;2.35;;;1.02;;
48647;SDS011;34437;-33.956;151.076;2023-02-13T06:18:24;22.17;;;2.20;;
48647;SDS011;34437;-33.956;151.076;2023-02-13T06:20:46;3.38;;;1.38;;
48647;SDS011;34437;-33.956;151.076;2023-02-13T06:23:09;3.90;;;1.67;;
48647;SDS011;34437;-33.956;151.076;2023-02-13T06:25:35;11.48;;;2.10;;
48647;SDS011;34437;-33.956;151.076;2023-02-13T06:27:57;9.57;;;1.83;;
48647;SDS011;34437;-33.956;151.076;2023-02-13T06:30:20;6.55;;;2.00;;
48647;SDS011;34437;-33.956;151.076;2023-02-13T06:32:42;6.95;;;2.10;;
48647;SDS011;34437;-33.956;151.076;2023-02-13T06:35:07;5.40;;;1.98;;
48647;SDS011;34437;-33.956;151.076;2023-02-13T06:37:30;8.52;;;2.45;;
48647;SDS011;34437;-33.956;151.076;2023-02-13T06:39:52;6.35;;;2.00;;
48647;SDS011;34437;-33.956;151.076;2023-02-13T06:42:15;6.55;;;2.00;;
48647;SDS011;34437;-33.956;151.076;2023-02-13T06:44:38;7.28;;;2.40;;
48647;SDS011;34437;-33.956;151.076;2023-02-13T06:47:03;6.93;;;2.25;;
48647;SDS011;34437;-33.956;151.076;2023-02-13T06:49:26;8.32;;;2.60;;
48647;SDS011;34437;-33.956;151.076;2023-02-13T06:51:48;5.97;;;2.00;;
48647;SDS011;34437;-33.956;151.076;2023-02-13T06:54:11;5.05;;;1.40;;
48647;SDS011;34437;-33.956;151.076;2023-02-13T06:56:33;3.65;;;1.42;;
48647;SDS011;34437;-33.956;151.076;2023-02-13T06:58:56;4.28;;;1.40;;
48647;SDS011;34437;-33.956;151.076;2023-02-13T07:01:18;3.40;;;1.58;;
48647;SDS011;34437;-33.956;151.076;2023-02-13T07:03:41;5.93;;;1.95;;
48647;SDS011;34437;-33.956;151.076;2023-02-13T07:06:03;4.70;;;1.40;;
48647;SDS011;34437;-33.956;151.076;2023-02-13T07:08:26;4.45;;;1.50;;
48647;SDS011;34437;-33.956;151.076;2023-02-13T07:10:49;3.60;;;1.30;;
48647;SDS011;34437;-33.956;151.076;2023-02-13T07:13:11;3.25;;;1.33;;
48647;SDS011;34437;-33.956;151.076;2023-02-13T07:15:34;8.30;;;2.25;;
48647;SDS011;34437;-33.956;151.076;2023-02-13T07:17:57;4.00;;;1.33;;
48647;SDS011;34437;-33.956;151.076;2023-02-13T07:20:20;3.33;;;1.60;;
48647;SDS011;34437;-33.956;151.076;2023-02-13T07:22:42;4.28;;;1.38;;
48647;SDS011;34437;-33.956;151.076;2023-02-13T07:25:05;2.53;;;0.82;;
48647;SDS011;34437;-33.956;151.076;2023-02-13T07:27:27;3.60;;;1.15;;
48647;SDS011;34437;-33.956;151.076;2023-02-13T07:29:50;2.70;;;1.10;;
48647;SDS011;34437;-33.956;151.076;2023-02-13T07:32:12;3.60;;;1.17;;
48647;SDS011;34437;-33.956;151.076;2023-02-13T07:34:35;4.05;;;1.33;;
48647;SDS011;34437;-33.956;151.076;2023-02-13T07:36:57;2.75;;;1.02;;
48647;SDS011;34437;-33.956;151.076;2023-02-13T07:39:23;4.22;;;1.52;;
48647;SDS011;34437;-33.956;151.076;2023-02-13T07:41:49;5.38;;;1.50;;
48647;SDS011;34437;-33.956;151.076;2023-02-13T07:44:12;4.28;;;1.08;;
48647;SDS011;34437;-33.956;151.076;2023-02-13T07:46:34;5.03;;;1.23;;
48647;SDS011;34437;-33.956;151.076;2023-02-13T07:48:57;2.70;;;1.10;;
48647;SDS011;34437;-33.956;151.076;2023-02-13T07:51:19;3.78;;;1.08;;
48647;SDS011;34437;-33.956;151.076;2023-02-13T07:53:47;3.53;;;1.05;;
48647;SDS011;34437;-33.956;151.076;2023-02-13T07:56:09;5.32;;;1.48;;
48647;SDS011;34437;-33.956;151.076;2023-02-13T07:58:32;3.17;;;1.38;;
48647;SDS011;34437;-33.956;151.076;2023-02-13T08:00:54;4.03;;;1.35;;
48647;SDS011;34437;-33.956;151.076;2023-02-13T08:03:17;4.65;;;1.58;;
48647;SDS011;34437;-33.956;151.076;2023-02-13T08:05:39;3.65;;;1.40;;
48647;SDS011;34437;-33.956;151.076;2023-02-13T08:08:02;3.67;;;1.40;;
48647;SDS011;34437;-33.956;151.076;2023-02-13T08:10:25;3.17;;;1.35;;
48647;SDS011;34437;-33.956;151.076;2023-02-13T08:13:05;3.83;;;1.45;;
48647;SDS011;34437;-33.956;151.076;2023-02-13T08:15:28;3.65;;;1.42;;
48647;SDS011;34437;-33.956;151.076;2023-02-13T08:17:51;4.47;;;1.60;;
48647;SDS011;34437;-33.956;151.076;2023-02-13T08:20:33;7.00;;;1.80;;
48647;SDS011;34437;-33.956;151.076;2023-02-13T08:23:03;4.10;;;1.40;;
48647;SDS011;34437;-33.956;151.076;2023-02-13T08:25:26;3.90;;;1.40;;
48647;SDS011;34437;-33.956;151.076;2023-02-13T08:27:49;4.70;;;1.73;;
48647;SDS011;34437;-33.956;151.076;2023-02-13T08:30:12;5.28;;;1.50;;
48647;SDS011;34437;-33.956;151.076;2023-02-13T08:32:35;4.00;;;1.50;;
48647;SDS011;34437;-33.956;151.076;2023-02-13T08:34:57;4.05;;;1.45;;
48647;SDS011;34437;-33.956;151.076;2023-02-13T08:37:20;4.45;;;1.38;;
48647;SDS011;34437;-33.956;151.076;2023-02-13T08:39:42;4.53;;;1.55;;
48647;SDS011;34437;-33.956;151.076;2023-02-13T08:42:05;5.63;;;1.50;;
48647;SDS011;34437;-33.956;151.076;2023-02-13T08:44:27;4.85;;;1.40;;
48647;SDS011;34437;-33.956;151.076;2023-02-13T08:46:50;3.88;;;1.60;;
48647;SDS011;34437;-33.956;151.076;2023-02-13T08:49:12;4.47;;;1.63;;
48647;SDS011;34437;-33.956;151.076;2023-02-13T08:51:35;3.97;;;1.27;;
48647;SDS011;34437;-33.956;151.076;2023-02-13T08:53:57;4.63;;;1.50;;
48647;SDS011;34437;-33.956;151.076;2023-02-13T08:56:20;4.13;;;1.40;;
48647;SDS011;34437;-33.956;151.076;2023-02-13T08:58:42;3.38;;;1.08;;
48647;SDS011;34437;-33.956;151.076;2023-02-13T09:01:05;4.95;;;1.38;;
48647;SDS011;34437;-33.956;151.076;2023-02-13T09:03:28;3.40;;;1.35;;
48647;SDS011;34437;-33.956;151.076;2023-02-13T09:05:51;4.03;;;1.55;;
48647;SDS011;34437;-33.956;151.076;2023-02-13T09:08:13;4.10;;;1.25;;
48647;SDS011;34437;-33.956;151.076;2023-02-13T09:10:36;4.25;;;1.58;;
48647;SDS011;34437;-33.956;151.076;2023-02-13T09:12:59;4.10;;;1.67;;
48647;SDS011;34437;-33.956;151.076;2023-02-13T09:15:21;2.85;;;1.30;;
48647;SDS011;34437;-33.956;151.076;2023-02-13T09:17:44;3.92;;;1.13;;
48647;SDS011;34437;-33.956;151.076;2023-02-13T09:20:07;3.63;;;1.38;;
48647;SDS011;34437;-33.956;151.076;2023-02-13T09:22:30;3.58;;;1.77;;
48647;SDS011;34437;-33.956;151.076;2023-02-13T09:24:52;4.68;;;1.58;;
48647;SDS011;34437;-33.956;151.076;2023-02-13T09:27:15;3.97;;;1.52;;
48647;SDS011;34437;-33.956;151.076;2023-02-13T09:29:37;3.38;;;1.23;;
48647;SDS011;34437;-33.956;151.076;2023-02-13T09:31:59;2.85;;;1.25;;
48647;SDS011;34437;-33.956;151.076;2023-02-13T09:34:22;3.58;;;1.20;;
48647;SDS011;34437;-33.956;151.076;2023-02-13T09:36:44;3.08;;;0.98;;
48647;SDS011;34437;-33.956;151.076;2023-02-13T09:39:11;1.88;;;0.90;;
48647;SDS011;34437;-33.956;151.076;2023-02-13T09:41:37;2.92;;;1.08;;
48647;SDS011;34437;-33.956;151.076;2023-02-13T09:44:19;2.10;;;0.88;;
48647;SDS011;34437;-33.956;151.076;2023-02-13T09:47:06;2.47;;;1.00;;
48647;SDS011;34437;-33.956;151.076;2023-02-13T09:49:34;2.80;;;1.25;;
48647;SDS011;34437;-33.956;151.076;2023-02-13T09:52:01;2.35;;;0.90;;
48647;SDS011;34437;-33.956;151.076;2023-02-13T09:54:23;2.25;;;1.00;;
48647;SDS011;34437;-33.956;151.076;2023-02-13T10:16:09;2.70;;;0.80;;
48647;SDS011;34437;-33.956;151.076;2023-02-13T10:18:50;1.20;;;0.55;;
48647;SDS011;34437;-33.956;151.076;2023-02-13T10:21:21;4.30;;;1.45;;
48647;SDS011;34437;-33.956;151.076;2023-02-13T10:23:50;1.58;;;0.88;;
48647;SDS011;34437;-33.956;151.076;2023-02-13T10:26:26;2.17;;;0.90;;
48647;SDS011;34437;-33.956;151.076;2023-02-13T10:29:05;1.17;;;0.60;;
48647;SDS011;34437;-33.956;151.076;2023-02-13T10:32:00;2.80;;;0.90;;
48647;SDS011;34437;-33.956;151.076;2023-02-13T10:34:27;0.60;;;0.40;;
48647;SDS011;34437;-33.956;151.076;2023-02-13T10:36:55;1.30;;;0.70;;
48647;SDS011;34437;-33.956;151.076;2023-02-13T10:39:28;1.70;;;0.60;;
48647;SDS011;34437;-33.956;151.076;2023-02-13T10:49:42;1.77;;;1.02;;
48647;SDS011;34437;-33.956;151.076;2023-02-13T10:55:48;1.33;;;0.60;;
48647;SDS011;34437;-33.956;151.076;2023-02-13T11:03:21;4.65;;;1.25;;
48647;SDS011;34437;-33.956;151.076;2023-02-13T11:05:46;5.60;;;1.33;;
48647;SDS011;34437;-33.956;151.076;2023-02-13T11:08:32;4.35;;;1.35;;
48647;SDS011;34437;-33.956;151.076;2023-02-13T11:11:26;9.10;;;1.52;;
48647;SDS011;34437;-33.956;151.076;2023-02-13T11:14:10;5.32;;;1.45;;
48647;SDS011;34437;-33.956;151.076;2023-02-13T11:21:58;10.45;;;1.63;;
48647;SDS011;34437;-33.956;151.076;2023-02-13T11:24:28;6.05;;;1.65;;
48647;SDS011;34437;-33.956;151.076;2023-02-13T11:26:53;7.05;;;2.15;;
48647;SDS011;34437;-33.956;151.076;2023-02-13T11:32:00;3.63;;;1.33;;
48647;SDS011;34437;-33.956;151.076;2023-02-13T11:34:26;9.32;;;2.40;;
48647;SDS011;34437;-33.956;151.076;2023-02-13T11:36:51;5.03;;;1.80;;
48647;SDS011;34437;-33.956;151.076;2023-02-13T11:39:19;7.45;;;2.10;;
48647;SDS011;34437;-33.956;151.076;2023-02-13T11:41:43;6.55;;;1.88;;
48647;SDS011;34437;-33.956;151.076;2023-02-13T11:44:17;6.88;;;1.90;;
48647;SDS011;34437;-33.956;151.076;2023-02-13T11:46:49;7.57;;;2.00;;
48647;SDS011;34437;-33.956;151.076;2023-02-13T11:49:18;9.95;;;1.98;;
48647;SDS011;34437;-33.956;151.076;2023-02-13T11:51:43;7.13;;;1.75;;
48647;SDS011;34437;-33.956;151.076;2023-02-13T11:54:28;7.53;;;1.80;;
48647;SDS011;34437;-33.956;151.076;2023-02-13T11:57:14;8.03;;;1.83;;
48647;SDS011;34437;-33.956;151.076;2023-02-13T11:59:43;6.43;;;1.60;;
48647;SDS011;34437;-33.956;151.076;2023-02-13T12:02:21;5.65;;;1.67;;
48647;SDS011;34437;-33.956;151.076;2023-02-13T12:04:45;3.92;;;1.60;;
48647;SDS011;34437;-33.956;151.076;2023-02-13T12:09:38;3.95;;;1.10;;
48647;SDS011;34437;-33.956;151.076;2023-02-13T12:12:01;3.83;;;1.85;;
48647;SDS011;34437;-33.956;151.076;2023-02-13T12:14:36;3.33;;;1.35;;
48647;SDS011;34437;-33.956;151.076;2023-02-13T12:17:04;11.23;;;1.20;;
48647;SDS011;34437;-33.956;151.076;2023-02-13T12:19:38;5.60;;;1.40;;
48647;SDS011;34437;-33.956;151.076;2023-02-13T12:46:59;5.40;;;1.40;;
48647;SDS011;34437;-33.956;151.076;2023-02-13T12:58:17;2.15;;;1.13;;
48647;SDS011;34437;-33.956;151.076;2023-02-13T13:20:43;5.28;;;1.33;;
48647;SDS011;34437;-33.956;151.076;2023-02-13T13:28:41;5.15;;;1.70;;
48647;SDS011;34437;-33.956;151.076;2023-02-13T13:31:09;7.20;;;1.58;;
48647;SDS011;34437;-33.956;151.076;2023-02-13T13:33:33;4.20;;;1.52;;
48647;SDS011;34437;-33.956;151.076;2023-02-13T13:38:36;7.47;;;1.20;;
48647;SDS011;34437;-33.956;151.076;2023-02-13T13:41:17;5.72;;;1.58;;
48647;SDS011;34437;-33.956;151.076;2023-02-13T13:44:03;5.95;;;1.45;;
48647;SDS011;34437;-33.956;151.076;2023-02-13T13:53:22;6.38;;;1.10;;
48647;SDS011;34437;-33.956;151.076;2023-02-13T13:58:33;4.95;;;1.40;;
48647;SDS011;34437;-33.956;151.076;2023-02-13T14:01:38;4.05;;;1.38;;
48647;SDS011;34437;-33.956;151.076;2023-02-13T14:03:53;4.57;;;1.58;;
48647;SDS011;34437;-33.956;151.076;2023-02-13T14:06:20;4.95;;;1.77;;
48647;SDS011;34437;-33.956;151.076;2023-02-13T14:11:30;7.95;;;1.42;;
48647;SDS011;34437;-33.956;151.076;2023-02-13T14:16:47;3.13;;;1.20;;
48647;SDS011;34437;-33.956;151.076;2023-02-13T14:24:55;4.10;;;0.90;;
48647;SDS011;34437;-33.956;151.076;2023-02-13T14:27:23;6.82;;;1.30;;
48647;SDS011;34437;-33.956;151.076;2023-02-13T14:29:52;3.33;;;1.27;;
48647;SDS011;34437;-33.956;151.076;2023-02-13T14:32:18;10.77;;;2.20;;
48647;SDS011;34437;-33.956;151.076;2023-02-13T14:34:55;7.95;;;2.58;;
48647;SDS011;34437;-33.956;151.076;2023-02-13T14:37:35;9.77;;;2.13;;
48647;SDS011;34437;-33.956;151.076;2023-02-13T14:42:53;4.10;;;1.70;;
48647;SDS011;34437;-33.956;151.076;2023-02-13T14:47:42;3.45;;;1.42;;
48647;SDS011;34437;-33.956;151.076;2023-02-13T14:50:48;3.28;;;1.10;;
48647;SDS011;34437;-33.956;151.076;2023-02-13T14:53:08;11.27;;;2.15;;
48647;SDS011;34437;-33.956;151.076;2023-02-13T14:55:47;13.10;;;2.22;;
48647;SDS011;34437;-33.956;151.076;2023-02-13T14:58:15;10.57;;;1.95;;
48647;SDS011;34437;-33.956;151.076;2023-02-13T15:06:05;7.15;;;1.92;;
48647;SDS011;34437;-33.956;151.076;2023-02-13T15:08:35;10.25;;;1.83;;
48647;SDS011;34437;-33.956;151.076;2023-02-13T15:11:04;6.88;;;1.90;;
48647;SDS011;34437;-33.956;151.076;2023-02-13T15:13:46;7.93;;;1.35;;
48647;SDS011;34437;-33.956;151.076;2023-02-13T15:16:09;6.10;;;1.38;;
48647;SDS011;34437;-33.956;151.076;2023-02-13T15:18:44;4.75;;;1.42;;
48647;SDS011;34437;-33.956;151.076;2023-02-13T15:21:17;5.82;;;1.50;;
48647;SDS011;34437;-33.956;151.076;2023-02-13T15:23:42;3.72;;;1.52;;
48647;SDS011;34437;-33.956;151.076;2023-02-13T15:26:16;3.25;;;1.60;;
48647;SDS011;34437;-33.956;151.076;2023-02-13T15:28:55;2.65;;;1.17;;
48647;SDS011;34437;-33.956;151.076;2023-02-13T15:31:28;3.55;;;1.15;;
48647;SDS011;34437;-33.956;151.076;2023-02-13T15:33:58;5.63;;;1.65;;
48647;SDS011;34437;-33.956;151.076;2023-02-13T15:36:22;2.58;;;1.20;;
48647;SDS011;34437;-33.956;151.076;2023-02-13T15:38:46;4.20;;;1.63;;
48647;SDS011;34437;-33.956;151.076;2023-02-13T15:41:10;3.03;;;1.05;;
48647;SDS011;34437;-33.956;151.076;2023-02-13T15:43:43;2.65;;;1.10;;
48647;SDS011;34437;-33.956;151.076;2023-02-13T15:46:26;4.20;;;1.23;;
48647;SDS011;34437;-33.956;151.076;2023-02-13T15:48:51;6.90;;;1.90;;
48647;SDS011;34437;-33.956;151.076;2023-02-13T15:51:25;3.88;;;1.30;;
48647;SDS011;34437;-33.956;151.076;2023-02-13T15:53:57;3.60;;;1.17;;
48647;SDS011;34437;-33.956;151.076;2023-02-13T15:56:25;1.98;;;1.10;;
48647;SDS011;34437;-33.956;151.076;2023-02-13T15:58:48;4.00;;;1.40;;
48647;SDS011;34437;-33.956;151.076;2023-02-13T16:01:12;2.42;;;1.17;;
48647;SDS011;34437;-33.956;151.076;2023-02-13T16:03:36;3.90;;;1.17;;
48647;SDS011;34437;-33.956;151.076;2023-02-13T16:06:03;4.30;;;1.30;;
48647;SDS011;34437;-33.956;151.076;2023-02-13T16:08:34;2.88;;;1.10;;
48647;SDS011;34437;-33.956;151.076;2023-02-13T16:14:04;1.98;;;1.02;;
48647;SDS011;34437;-33.956;151.076;2023-02-13T16:20:03;3.40;;;1.48;;
48647;SDS011;34437;-33.956;151.076;2023-02-13T16:22:04;2.25;;;1.00;;
48647;SDS011;34437;-33.956;151.076;2023-02-13T16:24:36;2.35;;;1.17;;
48647;SDS011;34437;-33.956;151.076;2023-02-13T16:26:58;4.18;;;1.20;;
48647;SDS011;34437;-33.956;151.076;2023-02-13T16:29:23;1.90;;;0.90;;
48647;SDS011;34437;-33.956;151.076;2023-02-13T16:31:47;5.95;;;1.60;;
48647;SDS011;34437;-33.956;151.076;2023-02-13T16:34:29;3.05;;;1.58;;
48647;SDS011;34437;-33.956;151.076;2023-02-13T16:36:52;3.08;;;1.02;;
48647;SDS011;34437;-33.956;151.076;2023-02-13T16:39:20;5.78;;;1.75;;
48647;SDS011;34437;-33.956;151.076;2023-02-13T16:41:47;4.38;;;1.65;;
48647;SDS011;34437;-33.956;151.076;2023-02-13T16:47:02;4.47;;;1.48;;
48647;SDS011;34437;-33.956;151.076;2023-02-13T16:49:26;2.25;;;1.05;;
48647;SDS011;34437;-33.956;151.076;2023-02-13T16:59:41;4.97;;;1.20;;
48647;SDS011;34437;-33.956;151.076;2023-02-13T17:02:25;7.60;;;1.35;;
48647;SDS011;34437;-33.956;151.076;2023-02-13T17:04:55;5.97;;;1.38;;
48647;SDS011;34437;-33.956;151.076;2023-02-13T17:10:02;3.65;;;1.20;;
48647;SDS011;34437;-33.956;151.076;2023-02-13T17:12:25;2.35;;;1.20;;
48647;SDS011;34437;-33.956;151.076;2023-02-13T17:14:49;5.88;;;1.75;;
48647;SDS011;34437;-33.956;151.076;2023-02-13T17:17:14;3.78;;;1.27;;
48647;SDS011;34437;-33.956;151.076;2023-02-13T17:19:38;4.80;;;1.13;;
48647;SDS011;34437;-33.956;151.076;2023-02-13T17:22:01;2.13;;;1.20;;
48647;SDS011;34437;-33.956;151.076;2023-02-13T17:24:24;5.93;;;1.30;;
48647;SDS011;34437;-33.956;151.076;2023-02-13T17:26:46;4.43;;;1.23;;
48647;SDS011;34437;-33.956;151.076;2023-02-13T17:29:08;2.63;;;1.08;;
48647;SDS011;34437;-33.956;151.076;2023-02-13T17:31:31;6.57;;;1.55;;
48647;SDS011;34437;-33.956;151.076;2023-02-13T17:33:53;5.65;;;1.50;;
48647;SDS011;34437;-33.956;151.076;2023-02-13T17:36:16;5.30;;;1.40;;
48647;SDS011;34437;-33.956;151.076;2023-02-13T17:38:38;3.25;;;1.00;;